Tous les Résultats et les Classements des Compétitions E.S.F.

69ème CHALLENGE - VAL CENIS, le 20/04/2019 GRANDE FINALE

Total des 2 Manches

Clt. Identité Code E.S.F. S. An Cat Tps1 Clt1 Tps2 Clt2 Temps
1 ANSELMET ALEXANDRE MON21238 ESF VALMEINIER M 1980 VH1 39.19 6 37.27 1 1:16.46
2 RIVAS GABRIEL MON31291 ESF VAL THORENS M 1986 SH 37.75 1 39.88 13 1:17.63
3 SAUVAGE MICHAEL MON23796 E.N.S.A. M 1982 VH1 38.86 4 39.13 4 1:17.99
4 LELEU THEO MON44341 ESF MERIBEL LES ALLUES M 1992 SH 38.82 3 39.75 10 1:18.57
5 OBERT ANTHONY MON32282 ESF CHAMONIX M 1985 SH 39.39 8 39.64 8 1:19.03
6 GALEOTTI GREG MON44074 ESF VAL THORENS M 1992 SH 38.64 2 40.46 29 1:19.10
7 EMPTAZ-COLOMB ROMAIN MON31389 ESF CORRENCON M 1987 SH 41.25 42 38.25 2 1:19.50
8 CASTELLON RUDY MON42375 ESF MENUIRES (LES) M 1994 SH 40.67 29 38.86 3 1:19.53
9 HUSTACHE MATHIEU MON23986 ESF MENUIRES (LES) M 1984 VH1 39.98 12 39.62 7 1:19.60
10 HUDRY FLORIAN BENJAMI MON40043 ESF MENUIRES (LES) M 1993 SH 40.21 17 39.54 6 1:19.75
11 MASSON ADRIEN MON46100 ESF CLUSAZ (LA) M 1997 SH 40.11 16 40.03 18 1:20.14
12 PYARD FLAVIEN MON30330 ESF VAL THORENS M 1985 SH 39.65 11 40.59 32 1:20.24
13 VOISIN NATHAN MON41165 ESF BELLEVAUX M 1994 SH 40.25 18 40.30 26 1:20.55
14 LE DANTEC ALEXANDRE MON45662 ESF DEUX ALPES (LES) M 1997 SH 40.37 24 40.48 30 1:20.85
15 GROGNET JULIEN MON22913 E.N.S.A. M 1983 VH1 41.06 34 39.89 14 1:20.95
16 BLANC ALEXIS MON45206 ESF VAL CENIS M 1998 SH 40.47 25 40.65 36 1:21.12
17 GROS KIERAN MON31042 ESF TOUSSUIRE (LA) M 1990 SH 40.59 27 40.63 33 1:21.22
18 COVILI FREDERIC MON19082 ESF MENUIRES (LES) M 1975 VH2 41.15 38 40.12 20 1:21.27
19 TOMAMICHEL CLEMENT MON40797 ESF ALPE D'HUEZ (L') M 1991 SH 41.46 49 39.85 11 1:21.31
20 SCHROEDER PAUL MON41037 ESF VAL D ISERE M 1990 SH 41.08 35 40.25 22 1:21.33
21 GARNIER QUENTIN MON27096 U.C.P.A. M 1979 VH2 40.63 28 40.76 42 1:21.39
22 PICHOT SEBASTIEN MON30777 ESF COURCHEVEL 1850 M 1981 VH1 39.12 5 42.40 69 1:21.52
23 BOULANGER JULIEN MON15159 ESF COURCHEVEL 1550 M 1973 VH3 41.66 54 40.00 16 1:21.66
24 IDESHEIM JONATHAN MON18490 ESF DEUX ALPES (LES) M 1979 VH2 40.07 15 41.62 52 1:21.69
25 GIRARD YANN MON26616 ESF VAL THORENS M 1986 SH 41.73 58 40.00 16 1:21.73
26 GRUMEAU YVAN MON30368 ESF ARCS 1800 M 1989 SH 41.03 33 40.73 40 1:21.76
27 BONNET MAXIME MON23982 ESF VAL D ISERE M 1983 VH1 41.46 49 40.39 27 1:21.85
28 LEBRAT DYLAN MON42008 ESF ORRES (LES) M 1996 SH 40.06 14 41.85 62 1:21.91
29 MARTIN FLORIAN MON43482 ESF MERIBEL LES ALLUES M 1996 SH 40.26 20 41.68 55 1:21.94
30 MAITRE THOMAS MON43218 ESF ROSIERE (LA) M 1992 SH 41.28 46 40.75 41 1:22.03
31 BENOIT-GUYOD JULIEN MON22898 ESF ROUSSES (LES) M 1983 VH1 41.82 59 40.29 25 1:22.11
32 PROST JEAN-MICHEL MON22283 E.N.S.A. M 1983 VH1 39.99 13 42.14 66 1:22.13
33 DERUAZ THOMAS MON23673 ESF MANIGOD M 1983 VH1 41.65 53 40.64 35 1:22.29
34 RIGOLE FABIEN MON32250 ESF ST GERVAIS LES BAINS M 1987 SH 41.68 56 40.72 39 1:22.40
35 TONDA ROMAIN MON43055 ESF ABRIES (HAUT GUIL) M 1997 SH 40.83 31 41.84 61 1:22.67
36 MAISTRE JOFFREY MON43663 ESF CLUSAZ (LA) M 1997 SH 41.08 35 41.69 56 1:22.77
37 CLEMENT AUBIN MON44381 ESF CLUSAZ (LA) M 1996 SH 40.95 32 41.85 62 1:22.80
38 PATRAS JEREMIE MON30667 ESF DEVOLUY M 1990 SH 40.36 22 42.47 70 1:22.83
39 MARTOIA ANTOINE MON40610 ESF ALPE D'HUEZ (L') M 1994 SH 41.67 55 41.23 47 1:22.90
40 RODRIGUEZ MICKAEL MON42853 ESF AUTRANS M 1996 SH 41.86 60 41.12 45 1:22.98
41 SEIMETZ ADRIEN MON44336 ESF CLUSAZ (LA) M 1998 SH 41.69 57 41.30 49 1:22.99
42 COQUET KILIAN MON43865 ESF TIGNES VAL CLARET M 1998 SH 41.60 52 41.73 57 1:23.33
43 BOUVARD SAMUEL MON17578 ESF VALLOIRE M 1976 VH2 42.91 69 40.43 28 1:23.34
43 ROGER CEDRIC MON30849 E.N.S.A. M 1987 SH 41.26 44 42.08 65 1:23.34
45 BLANC DAMIEN MON40828 ESF RISOUL 1850 M 1995 SH 41.12 37 42.33 67 1:23.45
46 BLANC DELPHIN MON23026 ESF VAL CENIS M 1983 VH1 42.68 67 40.90 44 1:23.58
47 BAUDIN MATHIEU MON26260 ESF VALMEINIER M 1987 SH 41.88 62 41.77 60 1:23.65
48 AVELINE MAXENCE MON41593 ESF MANIGOD M 1995 SH 41.18 39 42.91 74 1:24.09
49 REYNIER HUGO MON43436 ESF ORRES (LES) M 1997 SH 41.25 42 42.97 76 1:24.22
50 DUBREUIL DAVY MON30408 ESF COMBLOUX M 1989 SH 43.59 72 40.66 37 1:24.25
51 ADAMSON ALEXANDER MON42256 ESF ALPE D'HUEZ (L') M 1996 SH 44.09 75 40.26 23 1:24.35
52 ALBRIEUX JEREMY MON24212 ESF VALMEINIER M 1985 SH 41.87 61 42.54 73 1:24.41
53 GOHET TOM MON30522 ESF TERMIGNON M 1989 SH 41.97 63 42.49 72 1:24.46
54 MIQUEL TOM MON32113 ESF ALPE D'HUEZ (L') M 1992 SH 40.25 18 44.28 80 1:24.53
55 GENAND-RIONDET CHARLY MON26686 ESF CLUSAZ (LA) M 1986 SH 43.41 71 41.73 57 1:25.14
56 BANTIN BAPTISTE MON31874 ESF VAL THORENS M 1992 SH 44.39 76 40.81 43 1:25.20
57 CERESA TIMOTHE MON30492 ESF MENUIRES (LES) M 1987 SH 45.96 79 39.69 9 1:25.65
58 NORAZ BENOIT MON43170 ESF VALLOIRE M 1997 SH 41.27 45 44.52 81 1:25.79
59 MIAILLIER SYLVAIN MON26605 ESF ALPE D'HUEZ (L') M 1986 SH 42.41 65 43.42 77 1:25.83
60 COINTE STEPHANE MON17617 ESF ISOLA 2000 M 1978 VH2 44.56 77 41.67 53 1:26.23
61 ESPITALLIER VINCENT MON22846 ESF LIORAN (LE) M 1984 VH1 44.81 78 41.75 59 1:26.56
62 PINEL ALEXANDRE MON31482 ESF DEUX ALPES (LES) M 1988 SH 43.81 73 43.98 79 1:27.79
62 PENTECOTE DAVID MON32623 ESF VALMOREL M 1993 SH 42.78 68 45.01 82 1:27.79
64 RUFFIER LANCHE RAPHAEL MON18757 ESF CHAMPAGNY EN VANOISE M 1980 VH1 42.52 66 46.87 84 1:29.39
65 DUPRAZ ANTOINE MON40093 ESF MORZINE M 1993 SH 48.58 80 41.60 51 1:30.18
BARONI CHARLY MON26531 ESF SERRE CHE. MONETIER M 1988 SH ABD ABD ABD
TURREL YANNICK MON17543 E.N.S.A. M 1972 VH3 ABD ABS ABD
VUILLEMIN CORENTIN MON42727 ESF MEGEVE M 1995 SH ABD ABS ABD
LEKAENE SACHA MON45520 ESF TIGNES M 1998 SH ABD ABS ABD
SORREL SEBASTIEN MON32057 ESF COURCHEVEL 1850 M 1985 SH ABD ABS ABD
REYNAUD BASTIEN MON44335 ESF MENUIRES (LES) M 1998 SH ABD ABS ABD
BOUCHEX-BELLOMIE XAVIER MON19354 ESF CREST VOLAND M 1981 VH1 ABD ABS ABD
PAGET TANGUY MON40773 ESF FLAINE M 1994 SH ABD 42.96 75 ABD
DANEL CHARLES ALEXANDR MON40836 ESF AX BONASCRE LE SAQUET M 1993 SH ABD DSQ ABD
PELLISSIER MARION MON44061 ESF ST FRANCOIS LONGCHAMP F 1988 D1 43.28 70 ABD ABD
MATTEI GEOFFREY MON43248 ESF MERIBEL LES ALLUES M 1990 SH ABD ABD ABD
PAGET QUENTIN MON31296 ESF COMBLOUX M 1990 SH ABD ABD ABD
FAVRE-FELIX MAXIME MON41281 ESF CHATEL M 1995 SH ABD ABD ABD
LOIRE FLORIAN MON43588 ESF MERIBEL LES ALLUES M 1997 SH 43.98 74 ABD ABD
ROUX KEVIN MON30518 ESF MEGEVE M 1990 SH ABD 45.01 82 ABD
DIERNAZ CORENTIN MON41796 ESF MERIBEL LES ALLUES M 1996 SH ABD ABD ABD
SCHANDENE JEROME MON18963 ESF ALPE D'HUEZ (L') M 1977 VH2 ABD 48.74 85 ABD
DEPOILLY CHRISTOPHE MON21936 ESF MERIBEL LES ALLUES M 1979 VH2 ABD ABD ABD
TRACQUI ROMEO MON43441 ESF VAL CENIS M 1997 SH ABD ABD ABD
AUGUSTIN CLEMENT MON43939 ESF MERIBEL LES ALLUES M 1995 SH ABD ABD ABD
POCCARD-MARION MARC MON27143 ESF ARCS 1800 M 1989 SH ABD ABD ABD
SAUNDERS GREGORY MON42875 ESF MERIBEL LES ALLUES M 1995 SH ABD ABD ABD
BIBOLLET FRANCK MON26270 ESF ST NICOLAS FLUMET VAL ARLY M 1987 SH ABD 43.55 78 ABD
ANTOINE NICOLAS MON32635 ESF MEGEVE M 1990 SH ABD 40.28 24 ABD
BERTHON KEVIN MON31091 ESF VAL THORENS M 1990 SH ABD 42.39 68 ABD
LAMBERT NICOLAS MON31470 ESF DEUX ALPES (LES) M 1990 SH 39.27 7 ABD ABD
RAVANEL LOUIS MON44666 ESF CHAMONIX M 1997 SH ABD 40.18 21 ABD
GAIDET PAUL MON44370 ESF ROSIERE (LA) M 1999 SH 40.49 26 ABD ABD
FEUTRIER ADRIEN MON42215 ESF VALLOIRE M 1996 SH ABD 40.57 31 ABD
CRETET BASTIEN MON44289 ESF MENUIRES (LES) M 1999 SH ABD 39.93 15 ABD
LITNIANSKI CLEMENT MON42229 ESF CLUSAZ (LA) M 1995 SH ABD 40.63 33 ABD
LONGUEPEE ENZO MON45218 ESF CHATEL M 1997 SH ABD 39.85 11 ABD
AGNELLET MARTIN MON43238 ESF CLUSAZ (LA) M 1997 SH ABD 40.70 38 ABD
GERACI HUGO MON43820 ESF VAL D ISERE M 1996 SH 39.63 9 ABD ABD
VION FREDDY MON30073 ESF PRALOGNAN LA VANOISE M 1987 SH 40.81 30 ABD ABD
MEYNET XAVIER MON11942 E.N.S.A. M 1970 VH3 ABD 39.44 5 ABD
ANTONIOLI RICHARD MON40249 ESF COURCHEVEL 1850 M 1984 VH1 41.23 40 ABD ABD
OLMOS-ARSENNE TOM MON43761 ESF ALPE D'HUEZ (L') M 1996 SH 41.41 48 ABD ABD
DUPRAZ QUENTIN MON31018 ESF MORZINE M 1990 SH 42.37 64 ABD ABD
HOEN BENOIT MON42405 ESF MERIBEL LES ALLUES M 1994 SH ABD 41.97 64 ABD
CORSO JORIS MON30934 ESF VALBERG-BEUIL M 1990 SH ABD 41.67 53 ABD
VERRIER CAMILLE MON43335 ESF CHAMONIX M 1993 SH 40.33 21 ABD ABD
THEAUX TIMOTHEE MON22138 ESF VAL THORENS M 1980 VH1 41.50 51 ABD ABD
MAITRE ARNAUD MON41431 ESF ROSIERE (LA) M 1992 SH ABD ABS ABD
ASTRUA JORIS MON40034 ESF COURCHEVEL 1550 M 1993 SH ABD 41.35 50 ABD
VERGNAUD ROMAIN MON43373 ESF SERRE CHE. VILLENEUVE M 1996 SH 41.34 47 ABD ABD
HERPIN LENY MON43812 ESF SAISIES (LES) M 1995 SH ABD 41.29 48 ABD
BOULANGER ALEXIS MON41305 ESF COURCHEVEL 1650 M 1994 SH 41.23 40 ABD ABD
CHAMBEL LIONEL MON16883 ESF COMBLOUX M 1978 VH2 DSQ 41.21 46 DSQ
LOMBARD DAMIEN MON30278 ESF CHATEL M 1988 SH DSQ 40.07 19 DSQ
SUIFFET ALEXIS MON30182 ESF VAL CENIS M 1989 SH DSQ 42.47 70 DSQ
ROME THIBAUT MON31468 ESF DEUX ALPES (LES) M 1991 SH 40.36 22 DSQ DSQ
DELEGLISE NICOLAS MON30078 E.N.S.A. M 1989 SH DSQ ABD DSQ
SORREL JORAN MON31040 ESF COURCHEVEL 1550 M 1990 SH 39.63 9 ABS ABS
HAMADOU SEBASTIEN MON23175 ESF TIGNES M 1982 VH1 ABS ABS ABS